createdAt,value
2023-04-26T00:02:18.656Z,72.02
2023-04-26T00:05:21.931Z,72.25
2023-04-26T00:08:25.560Z,72.22
2023-04-26T00:11:28.519Z,72.10
2023-04-26T00:14:31.305Z,72.46
2023-04-26T00:17:34.337Z,73.00
2023-04-26T00:20:37.221Z,73.12
2023-04-26T00:23:40.020Z,73.30
2023-04-26T00:26:42.671Z,73.38
2023-04-26T00:29:46.230Z,73.52
2023-04-26T00:32:49.054Z,73.43
2023-04-26T00:35:52.249Z,73.77
2023-04-26T00:38:55.184Z,73.54
2023-04-26T00:41:58.640Z,73.64
2023-04-26T00:45:01.485Z,73.80
2023-04-26T00:48:05.769Z,73.94
2023-04-26T00:51:08.652Z,74.07
2023-04-26T00:54:13.170Z,73.63
2023-04-26T00:57:16.032Z,73.68
2023-04-26T01:00:19.251Z,73.80
2023-04-26T01:03:22.519Z,73.87
2023-04-26T01:06:25.625Z,73.89
2023-04-26T01:09:31.813Z,73.79
2023-04-26T01:12:36.650Z,74.05
2023-04-26T01:15:46.683Z,74.25
2023-04-26T01:18:53.604Z,74.04
2023-04-26T01:21:56.835Z,74.18
2023-04-26T01:25:01.765Z,73.89
2023-04-26T01:28:04.652Z,73.22
2023-04-26T01:31:07.747Z,73.01
2023-04-26T01:34:10.784Z,73.05
2023-04-26T01:37:13.672Z,73.02
2023-04-26T01:40:16.612Z,72.93
2023-04-26T01:43:21.271Z,72.96
2023-04-26T01:46:23.994Z,73.04
2023-04-26T01:49:26.932Z,73.09
2023-04-26T01:52:30.874Z,73.12
2023-04-26T01:55:36.509Z,73.09
2023-04-26T01:58:39.317Z,73.26
2023-04-26T02:01:43.770Z,73.55
2023-04-26T02:04:46.637Z,73.30
2023-04-26T02:07:49.452Z,73.20
2023-04-26T02:10:52.217Z,72.72
2023-04-26T02:13:55.199Z,73.02
2023-04-26T02:16:57.910Z,73.25
2023-04-26T02:20:00.909Z,73.22
2023-04-26T02:23:03.793Z,73.56
2023-04-26T02:26:07.047Z,73.08
2023-04-26T02:29:10.062Z,73.15
2023-04-26T02:32:14.550Z,72.74
2023-04-26T02:35:17.545Z,72.39
2023-04-26T02:38:20.816Z,72.82
2023-04-26T02:41:23.669Z,72.98
2023-04-26T02:44:29.662Z,72.86
2023-04-26T02:47:32.846Z,72.56
2023-04-26T02:50:38.387Z,72.35
2023-04-26T02:53:41.948Z,72.52
2023-04-26T02:56:44.707Z,72.31
2023-04-26T02:59:47.863Z,72.24
2023-04-26T03:02:51.020Z,72.12
2023-04-26T03:05:54.171Z,71.86
2023-04-26T03:08:57.093Z,71.83
2023-04-26T03:12:00.166Z,71.88
2023-04-26T03:15:04.174Z,71.93
2023-04-26T03:18:07.573Z,72.10
2023-04-26T03:21:10.471Z,72.34
2023-04-26T03:24:13.343Z,72.90
2023-04-26T03:27:16.102Z,72.98
2023-04-26T03:30:19.248Z,72.94
2023-04-26T03:33:22.101Z,72.88
2023-04-26T03:36:25.109Z,73.17
2023-04-26T03:39:27.991Z,73.10
2023-04-26T03:42:30.828Z,73.27
2023-04-26T03:45:33.793Z,73.14
2023-04-26T03:48:36.777Z,73.15
2023-04-26T03:51:39.671Z,73.17
2023-04-26T03:54:42.856Z,72.85
2023-04-26T03:57:45.728Z,72.83
2023-04-26T04:00:48.464Z,72.90
2023-04-26T04:03:51.467Z,72.37
2023-04-26T04:06:54.320Z,72.12
2023-04-26T04:09:57.212Z,71.43
2023-04-26T04:13:00.184Z,71.50
2023-04-26T04:16:04.822Z,71.63
2023-04-26T04:19:07.827Z,71.85
2023-04-26T04:22:11.581Z,71.77
2023-04-26T04:25:15.328Z,71.97
2023-04-26T04:28:18.046Z,71.62
2023-04-26T04:31:23.032Z,71.75
2023-04-26T04:34:26.370Z,71.04
2023-04-26T04:37:30.060Z,71.01
2023-04-26T04:40:32.933Z,71.47
2023-04-26T04:43:36.009Z,71.40
2023-04-26T04:46:38.877Z,71.65
2023-04-26T04:49:41.894Z,71.33
2023-04-26T04:52:44.704Z,70.98
2023-04-26T04:55:49.342Z,71.07
2023-04-26T04:58:54.007Z,71.02
2023-04-26T05:01:58.498Z,70.74
2023-04-26T05:05:02.147Z,69.85
2023-04-26T05:08:07.686Z,69.88
2023-04-26T05:11:21.020Z,69.17
2023-04-26T05:14:24.172Z,68.44
2023-04-26T05:17:27.161Z,68.94
2023-04-26T05:20:34.585Z,68.78
2023-04-26T05:23:37.530Z,68.50
2023-04-26T05:26:40.726Z,67.65
2023-04-26T05:29:52.187Z,67.24
2023-04-26T05:33:28.210Z,67.17
2023-04-26T05:36:32.961Z,66.92
2023-04-26T05:39:35.766Z,66.29
2023-04-26T05:42:38.707Z,66.51
2023-04-26T05:46:09.426Z,65.48
2023-04-26T05:49:12.412Z,65.32
2023-04-26T05:52:15.995Z,65.46
2023-04-26T05:55:20.191Z,64.97
2023-04-26T05:58:23.077Z,64.48
2023-04-26T06:01:26.439Z,63.71
2023-04-26T06:04:29.395Z,63.50
2023-04-26T06:07:46.610Z,63.08
2023-04-26T06:10:50.457Z,62.05
2023-04-26T06:13:53.570Z,61.94
2023-04-26T06:16:58.539Z,62.10
2023-04-26T06:20:05.211Z,59.04
2023-04-26T06:23:08.245Z,61.00
2023-04-26T06:26:10.990Z,58.77
2023-04-26T06:29:14.208Z,58.24
2023-04-26T06:32:17.006Z,58.35
2023-04-26T06:35:19.760Z,58.13
2023-04-26T06:38:22.537Z,57.39
2023-04-26T06:41:25.695Z,57.96
2023-04-26T06:44:28.751Z,57.37
2023-04-26T06:47:38.103Z,56.78
2023-04-26T06:50:40.990Z,56.10
2023-04-26T06:53:43.806Z,56.74
2023-04-26T06:56:46.855Z,55.84
2023-04-26T06:59:49.629Z,55.50
2023-04-26T07:02:53.813Z,54.98
2023-04-26T07:05:56.937Z,53.64
2023-04-26T07:09:01.430Z,52.49
2023-04-26T07:12:04.788Z,52.75
2023-04-26T07:15:08.451Z,52.36
2023-04-26T07:18:11.464Z,52.23
2023-04-26T07:21:15.257Z,51.99
2023-04-26T07:24:18.205Z,53.46
2023-04-26T07:27:21.453Z,51.76
2023-04-26T07:30:24.352Z,52.18
2023-04-26T07:33:27.505Z,51.71
2023-04-26T07:36:31.699Z,50.69
2023-04-26T07:39:34.580Z,50.20
2023-04-26T07:42:37.306Z,50.43
2023-04-26T07:45:40.121Z,50.17
2023-04-26T07:48:43.043Z,52.12
2023-04-26T07:51:45.978Z,52.55
2023-04-26T07:54:48.831Z,51.19
2023-04-26T07:57:51.611Z,49.30
2023-04-26T08:00:55.301Z,48.23
2023-04-26T08:03:58.725Z,47.56
2023-04-26T08:07:06.037Z,47.40
2023-04-26T08:10:21.054Z,46.88
2023-04-26T08:13:24.798Z,46.89
2023-04-26T08:16:28.477Z,45.79
2023-04-26T08:19:33.585Z,47.15
2023-04-26T08:22:36.776Z,47.04
2023-04-26T08:25:39.522Z,45.22
2023-04-26T08:28:42.918Z,43.45
2023-04-26T08:31:45.729Z,46.07
2023-04-26T08:34:48.888Z,46.79
2023-04-26T08:37:51.815Z,47.36
2023-04-26T08:40:56.452Z,44.84
2023-04-26T08:44:01.768Z,44.33
2023-04-26T08:47:14.084Z,43.88
2023-04-26T08:50:23.411Z,43.18
2023-04-26T08:53:28.015Z,41.03
2023-04-26T08:56:31.493Z,42.91
2023-04-26T08:59:38.294Z,43.65
2023-04-26T09:02:43.057Z,41.66
2023-04-26T09:05:46.140Z,41.29
2023-04-26T09:08:53.668Z,40.62
2023-04-26T09:11:58.267Z,40.85
2023-04-26T09:15:01.696Z,40.72
2023-04-26T09:18:21.489Z,41.98
2023-04-26T09:21:24.950Z,42.21
2023-04-26T09:24:27.715Z,39.65
2023-04-26T09:27:38.334Z,40.42
2023-04-26T09:30:41.343Z,40.24
2023-04-26T09:33:59.209Z,37.73
2023-04-26T09:37:02.014Z,38.66
2023-04-26T09:40:18.377Z,37.03
2023-04-26T09:43:22.606Z,39.09
2023-04-26T09:46:25.883Z,37.24
2023-04-26T09:49:50.791Z,39.63
2023-04-26T09:52:53.598Z,39.79
2023-04-26T09:55:58.278Z,39.78
2023-04-26T09:59:02.693Z,37.96
2023-04-26T10:02:10.548Z,40.14
2023-04-26T10:05:13.642Z,37.25
2023-04-26T10:08:16.810Z,33.89
2023-04-26T10:11:21.794Z,35.10
2023-04-26T10:14:25.181Z,34.59
2023-04-26T10:17:28.157Z,33.36
2023-04-26T10:20:31.611Z,34.57
2023-04-26T10:23:35.814Z,32.91
2023-04-26T10:26:57.780Z,34.40
2023-04-26T10:30:00.629Z,33.81
2023-04-26T10:33:06.339Z,34.36
2023-04-26T10:36:13.541Z,33.15
2023-04-26T10:39:25.124Z,35.64
2023-04-26T10:42:30.448Z,33.80
2023-04-26T10:45:33.357Z,32.36
2023-04-26T10:48:36.886Z,34.43
2023-04-26T10:51:39.713Z,34.07
2023-04-26T10:55:10.453Z,33.22
2023-04-26T10:58:31.279Z,35.03
2023-04-26T11:01:34.116Z,35.12
2023-04-26T11:04:55.277Z,34.09
2023-04-26T11:08:20.718Z,31.95
2023-04-26T11:11:27.290Z,31.67
2023-04-26T11:14:30.775Z,31.81
2023-04-26T11:17:38.308Z,32.50
2023-04-26T11:20:41.229Z,32.30
2023-04-26T11:23:53.562Z,32.11
2023-04-26T11:26:56.437Z,31.79
2023-04-26T11:30:03.568Z,34.17
2023-04-26T11:33:07.020Z,34.00
2023-04-26T11:36:10.026Z,31.52
2023-04-26T11:39:14.314Z,31.05
2023-04-26T11:42:17.272Z,33.52
2023-04-26T11:45:20.053Z,32.18
2023-04-26T11:48:23.042Z,30.99
2023-04-26T11:51:26.967Z,31.97
2023-04-26T11:54:34.082Z,32.15
2023-04-26T11:57:36.842Z,32.46
2023-04-26T12:01:01.959Z,31.63
2023-04-26T12:04:10.869Z,31.16
2023-04-26T12:07:18.923Z,30.72
2023-04-26T12:10:25.035Z,32.66
2023-04-26T12:13:29.616Z,32.80
2023-04-26T12:16:32.602Z,31.50
2023-04-26T12:19:39.694Z,31.92
2023-04-26T12:22:42.657Z,31.90
2023-04-26T12:25:56.350Z,33.75
2023-04-26T12:28:59.173Z,31.97
2023-04-26T12:32:02.878Z,30.58
2023-04-26T12:35:07.416Z,31.74
2023-04-26T12:38:10.560Z,32.05
2023-04-26T12:41:14.097Z,31.77
2023-04-26T12:44:19.604Z,32.24
2023-04-26T12:47:24.177Z,31.64
2023-04-26T12:50:27.822Z,32.59
2023-04-26T12:53:30.630Z,32.63
2023-04-26T12:56:34.189Z,32.75
2023-04-26T12:59:37.054Z,33.18
2023-04-26T13:02:40.450Z,32.26
2023-04-26T13:05:43.465Z,31.72
2023-04-26T13:08:46.239Z,31.28
2023-04-26T13:11:49.095Z,31.80
2023-04-26T13:14:52.010Z,31.94
2023-04-26T13:17:54.949Z,31.24
2023-04-26T13:20:57.900Z,31.46
2023-04-26T13:24:00.925Z,31.43
2023-04-26T13:27:04.099Z,31.89
2023-04-26T13:30:07.688Z,32.74
2023-04-26T13:33:11.240Z,31.89
2023-04-26T13:36:15.917Z,32.75
2023-04-26T13:39:19.203Z,32.64
2023-04-26T13:42:22.065Z,31.89
2023-04-26T13:45:24.822Z,31.04
2023-04-26T13:48:28.279Z,30.90
2023-04-26T13:51:33.293Z,29.55
2023-04-26T13:54:37.006Z,30.22
2023-04-26T13:57:39.968Z,30.64
2023-04-26T14:00:42.820Z,29.67
2023-04-26T14:03:45.883Z,30.62
2023-04-26T14:06:48.744Z,30.50
2023-04-26T14:09:52.192Z,30.57
2023-04-26T14:12:56.564Z,30.51
2023-04-26T14:16:00.533Z,31.82
2023-04-26T14:19:03.336Z,33.06
2023-04-26T14:22:06.225Z,32.55
2023-04-26T14:25:09.605Z,31.63
2023-04-26T14:28:12.816Z,32.06
2023-04-26T14:31:18.140Z,32.58
2023-04-26T14:34:22.421Z,33.20
2023-04-26T14:37:25.343Z,33.21
2023-04-26T14:40:28.739Z,34.12
2023-04-26T14:43:31.538Z,33.46
2023-04-26T14:46:34.371Z,33.24
2023-04-26T14:49:37.436Z,33.18
2023-04-26T14:52:40.796Z,31.70
2023-04-26T14:55:43.609Z,31.06
2023-04-26T14:58:46.844Z,29.68
2023-04-26T15:01:50.393Z,29.91
2023-04-26T15:04:53.313Z,30.19
2023-04-26T15:07:57.048Z,31.31
2023-04-26T15:10:59.939Z,32.36
2023-04-26T15:14:02.719Z,32.46
2023-04-26T15:17:05.663Z,33.39
2023-04-26T15:20:09.693Z,31.28
2023-04-26T15:23:12.835Z,31.22
2023-04-26T15:26:15.552Z,30.50
2023-04-26T15:29:18.358Z,29.42
2023-04-26T15:32:21.447Z,30.52
2023-04-26T15:35:25.242Z,31.64
2023-04-26T15:38:28.154Z,32.10
2023-04-26T15:41:31.097Z,32.12
2023-04-26T15:44:33.904Z,32.57
2023-04-26T15:47:37.267Z,33.76
2023-04-26T15:50:40.632Z,33.08
2023-04-26T15:53:44.184Z,33.46
2023-04-26T15:56:47.235Z,32.45
2023-04-26T15:59:49.985Z,33.67
2023-04-26T16:02:53.140Z,32.09
2023-04-26T16:05:56.043Z,33.29
2023-04-26T16:08:59.498Z,32.97
2023-04-26T16:12:03.770Z,33.02
2023-04-26T16:15:08.471Z,32.06
2023-04-26T16:18:11.387Z,32.64
2023-04-26T16:21:14.293Z,33.70
2023-04-26T16:24:17.268Z,32.04
2023-04-26T16:27:23.140Z,32.71
2023-04-26T16:30:25.977Z,33.68
2023-04-26T16:33:29.155Z,34.84
2023-04-26T16:36:33.024Z,35.51
2023-04-26T16:39:36.267Z,34.91
2023-04-26T16:42:43.436Z,35.36
2023-04-26T16:45:46.278Z,34.79
2023-04-26T16:48:49.087Z,34.56
2023-04-26T16:51:55.286Z,34.51
2023-04-26T16:54:59.417Z,35.62
2023-04-26T16:58:02.240Z,35.79
2023-04-26T17:01:05.166Z,36.46
2023-04-26T17:04:10.233Z,37.21
2023-04-26T17:07:14.384Z,37.71
2023-04-26T17:10:17.387Z,38.19
2023-04-26T17:13:20.736Z,38.49
2023-04-26T17:16:23.835Z,39.67
2023-04-26T17:19:27.221Z,39.92
2023-04-26T17:22:30.200Z,41.19
2023-04-26T17:25:33.020Z,41.62
2023-04-26T17:28:36.100Z,41.84
2023-04-26T17:31:39.101Z,42.31
2023-04-26T17:34:42.174Z,42.84
2023-04-26T17:37:50.543Z,43.54
2023-04-26T17:40:54.181Z,44.36
2023-04-26T17:43:57.133Z,44.33
2023-04-26T17:47:00.198Z,43.33
2023-04-26T17:50:03.692Z,43.88
2023-04-26T17:53:07.374Z,44.30
2023-04-26T17:56:10.716Z,44.34
2023-04-26T17:59:13.847Z,45.50
2023-04-26T18:02:17.186Z,45.96
2023-04-26T18:05:21.455Z,45.44
2023-04-26T18:08:24.531Z,45.66
2023-04-26T18:11:27.244Z,45.75
2023-04-26T18:14:30.736Z,45.87
2023-04-26T18:17:33.678Z,45.62
2023-04-26T18:20:39.673Z,46.60
2023-04-26T18:23:42.526Z,47.69
2023-04-26T18:26:45.470Z,47.93
2023-04-26T18:29:49.348Z,48.71
2023-04-26T18:32:53.329Z,51.02
2023-04-26T18:35:56.421Z,51.47
2023-04-26T18:39:00.862Z,51.84
2023-04-26T18:42:04.299Z,52.45
2023-04-26T18:45:08.004Z,52.34
2023-04-26T18:48:12.126Z,51.49
2023-04-26T18:51:15.269Z,51.05
2023-04-26T18:54:18.381Z,50.91
2023-04-26T18:57:22.806Z,50.37
2023-04-26T19:00:25.895Z,51.03
2023-04-26T19:03:29.055Z,51.43
2023-04-26T19:06:33.031Z,51.92
2023-04-26T19:09:50.470Z,52.04
2023-04-26T19:12:57.202Z,53.41
2023-04-26T19:16:00.439Z,54.49
2023-04-26T19:19:03.608Z,55.66
2023-04-26T19:22:06.442Z,55.94
2023-04-26T19:25:09.974Z,55.63
2023-04-26T19:28:13.149Z,55.61
2023-04-26T19:31:16.312Z,57.13
2023-04-26T19:34:19.326Z,57.33
2023-04-26T19:37:22.422Z,57.70
2023-04-26T19:40:25.556Z,59.20
2023-04-26T19:43:28.598Z,60.45
2023-04-26T19:46:31.668Z,60.54
2023-04-26T19:49:35.208Z,60.96
2023-04-26T19:52:38.262Z,61.41
2023-04-26T19:55:42.539Z,62.61
2023-04-26T19:58:45.942Z,63.13
2023-04-26T20:01:51.655Z,62.62
2023-04-26T20:04:57.014Z,62.43
2023-04-26T20:08:00.174Z,62.29
2023-04-26T20:11:04.831Z,62.51
2023-04-26T20:14:07.942Z,62.77
2023-04-26T20:17:11.038Z,61.89
2023-04-26T20:20:14.064Z,62.36
2023-04-26T20:23:17.242Z,62.61
2023-04-26T20:26:20.133Z,62.61
2023-04-26T20:29:23.006Z,62.58
2023-04-26T20:32:26.076Z,61.59
2023-04-26T20:35:29.235Z,62.99
2023-04-26T20:38:32.195Z,63.79
2023-04-26T20:41:35.514Z,63.53
2023-04-26T20:44:38.615Z,64.15
2023-04-26T20:47:41.476Z,63.93
2023-04-26T20:50:45.984Z,63.30
2023-04-26T20:53:49.232Z,62.37
2023-04-26T20:56:51.989Z,63.18
2023-04-26T20:59:54.763Z,62.97
2023-04-26T21:02:57.912Z,63.18
2023-04-26T21:06:00.727Z,62.75
2023-04-26T21:09:05.367Z,62.45
2023-04-26T21:12:08.636Z,62.62
2023-04-26T21:15:11.737Z,62.41
2023-04-26T21:18:14.512Z,62.32
2023-04-26T21:21:17.262Z,62.66
2023-04-26T21:24:20.349Z,62.57
2023-04-26T21:27:23.079Z,63.16
2023-04-26T21:30:25.832Z,62.84
2023-04-26T21:33:28.698Z,62.64
2023-04-26T21:36:32.538Z,62.79
2023-04-26T21:39:35.271Z,61.98
2023-04-26T21:42:37.986Z,62.05
2023-04-26T21:45:41.473Z,62.08
2023-04-26T21:48:44.899Z,61.97
2023-04-26T21:51:47.665Z,62.15
2023-04-26T21:54:52.728Z,62.76
2023-04-26T21:57:55.902Z,62.45
2023-04-26T22:01:10.103Z,62.37
2023-04-26T22:04:13.310Z,63.75
2023-04-26T22:07:16.152Z,63.51
2023-04-26T22:10:19.056Z,63.01
2023-04-26T22:13:32.469Z,63.16
2023-04-26T22:16:35.332Z,63.45
2023-04-26T22:19:38.380Z,63.72
2023-04-26T22:22:41.686Z,63.47
2023-04-26T22:25:44.455Z,64.08
2023-04-26T22:28:47.313Z,63.70
2023-04-26T22:31:50.293Z,62.51
2023-04-26T22:34:53.417Z,62.34
2023-04-26T22:37:56.455Z,62.42
2023-04-26T22:40:59.256Z,62.63
2023-04-26T22:44:02.069Z,63.22
2023-04-26T22:47:04.918Z,63.86
2023-04-26T22:50:08.546Z,64.06
2023-04-26T22:53:11.289Z,63.92
2023-04-26T22:56:14.088Z,64.23
2023-04-26T22:59:16.900Z,64.04
2023-04-26T23:02:20.259Z,63.58
2023-04-26T23:05:23.150Z,63.53
2023-04-26T23:08:25.900Z,64.18
2023-04-26T23:11:28.684Z,63.86
2023-04-26T23:14:31.716Z,64.40
2023-04-26T23:17:34.913Z,66.30
2023-04-26T23:20:37.712Z,65.35
2023-04-26T23:23:42.936Z,65.29
2023-04-26T23:26:45.760Z,64.81
2023-04-26T23:29:50.753Z,64.04
2023-04-26T23:32:53.561Z,63.64
2023-04-26T23:35:56.890Z,63.22
2023-04-26T23:39:00.104Z,62.97
2023-04-26T23:42:03.943Z,62.97
2023-04-26T23:45:07.963Z,62.81
2023-04-26T23:48:10.784Z,63.10
2023-04-26T23:51:13.663Z,62.15
2023-04-26T23:54:16.686Z,62.04
2023-04-26T23:57:19.453Z,62.32
